MSA3ED LIBP-LIRP
Flight info
| Callsign | MSA3ED |
|---|---|
| Flight time | 0h 45m |
| Altitude | 28000 |
| Route | OTRET M736 UTENO DCT NUKNI DCT PRT |
| Aircraft | B738/M-SDE2E3FGHIRWXY/LB1 |
Departure
| Time | 2026-04-24 12:44 |
|---|---|
| Airport | Abruzzo Airport (LIBP) |
Arrival
| Time | 2026-04-24 13:29 |
|---|---|
| Airport | Pisa International Airport (LIRP) |
| Time | Latitude | Longitude | Altitude | Speed | Heading |
|---|---|---|---|---|---|
| 2026-04-24 12:26 | 42.43034 | 14.18722 | 47 ft | 0 kts | 128° |
| 2026-04-24 12:33 | 42.43039 | 14.18714 | 47 ft | 2 kts | 132° |
| 2026-04-24 12:33 | 42.43051 | 14.18698 | 45 ft | 2 kts | 142° |
| 2026-04-24 12:33 | 42.43057 | 14.18691 | 46 ft | 0 kts | 152° |
| 2026-04-24 12:37 | 42.43056 | 14.18691 | 46 ft | 1 kts | 158° |
| 2026-04-24 12:37 | 42.43046 | 14.18677 | 43 ft | 4 kts | 239° |
| 2026-04-24 12:37 | 42.43030 | 14.18621 | 44 ft | 9 kts | 251° |
| 2026-04-24 12:37 | 42.43016 | 14.18524 | 46 ft | 12 kts | 261° |
| 2026-04-24 12:38 | 42.42965 | 14.18418 | 47 ft | 15 kts | 217° |
| 2026-04-24 12:38 | 42.42867 | 14.18316 | 47 ft | 22 kts | 218° |
| 2026-04-24 12:38 | 42.42719 | 14.18168 | 46 ft | 31 kts | 216° |
| 2026-04-24 12:39 | 42.42287 | 14.17715 | 47 ft | 11 kts | 230° |
| 2026-04-24 12:39 | 42.42271 | 14.17633 | 47 ft | 0 kts | 264° |
| 2026-04-24 12:42 | 42.42271 | 14.17631 | 47 ft | 1 kts | 264° |
| 2026-04-24 12:42 | 42.42269 | 14.17598 | 47 ft | 7 kts | 264° |
| 2026-04-24 12:42 | 42.42269 | 14.17513 | 43 ft | 10 kts | 283° |
| 2026-04-24 12:42 | 42.42301 | 14.17459 | 46 ft | 7 kts | 342° |
| 2026-04-24 12:43 | 42.42343 | 14.17483 | 44 ft | 7 kts | 37° |
| 2026-04-24 12:43 | 42.42398 | 14.17541 | 46 ft | 24 kts | 38° |
| 2026-04-24 12:43 | 42.42735 | 14.17889 | 47 ft | 97 kts | 37° |
| 2026-04-24 12:43 | 42.43446 | 14.18627 | 62 ft | 156 kts | 38° |
| 2026-04-24 12:44 | 42.44346 | 14.19583 | 645 ft | 168 kts | 39° |
| 2026-04-24 12:44 | 42.45409 | 14.20324 | 1362 ft | 181 kts | 20° |
| 2026-04-24 12:44 | 42.46571 | 14.21132 | 2064 ft | 193 kts | 34° |
| 2026-04-24 12:44 | 42.47721 | 14.22263 | 2522 ft | 216 kts | 36° |
| 2026-04-24 12:45 | 42.48986 | 14.23558 | 2867 ft | 234 kts | 36° |
| 2026-04-24 12:45 | 42.50476 | 14.24587 | 3272 ft | 253 kts | 8° |
| 2026-04-24 12:45 | 42.52244 | 14.24494 | 3988 ft | 259 kts | 344° |
| 2026-04-24 12:45 | 42.53847 | 14.23451 | 4900 ft | 259 kts | 324° |
| 2026-04-24 12:46 | 42.55104 | 14.21629 | 5485 ft | 272 kts | 305° |
| 2026-04-24 12:46 | 42.56128 | 14.19476 | 5943 ft | 272 kts | 304° |
| 2026-04-24 12:46 | 42.57136 | 14.17313 | 5978 ft | 269 kts | 304° |
| 2026-04-24 12:46 | 42.58134 | 14.15158 | 6004 ft | 271 kts | 304° |
| 2026-04-24 12:47 | 42.59144 | 14.12981 | 6010 ft | 272 kts | 303° |
| 2026-04-24 12:47 | 42.60150 | 14.10811 | 6006 ft | 272 kts | 303° |
| 2026-04-24 12:47 | 42.61157 | 14.08646 | 6293 ft | 275 kts | 305° |
| 2026-04-24 12:47 | 42.62488 | 14.06835 | 7144 ft | 270 kts | 331° |
| 2026-04-24 12:48 | 42.64177 | 14.05737 | 8045 ft | 269 kts | 338° |
| 2026-04-24 12:48 | 42.65915 | 14.04729 | 8825 ft | 274 kts | 339° |
| 2026-04-24 12:48 | 42.67676 | 14.03701 | 9641 ft | 276 kts | 338° |
| 2026-04-24 12:48 | 42.69451 | 14.02655 | 10412 ft | 280 kts | 338° |
| 2026-04-24 12:49 | 42.71304 | 14.01542 | 10666 ft | 304 kts | 338° |
| 2026-04-24 12:49 | 42.73301 | 14.00323 | 10964 ft | 322 kts | 337° |
| 2026-04-24 12:49 | 42.75371 | 13.99051 | 11594 ft | 329 kts | 337° |
| 2026-04-24 12:49 | 42.77466 | 13.97760 | 12361 ft | 332 kts | 337° |
| 2026-04-24 12:50 | 42.79583 | 13.96454 | 13142 ft | 335 kts | 338° |
| 2026-04-24 12:50 | 42.81697 | 13.95151 | 13919 ft | 339 kts | 338° |
| 2026-04-24 12:50 | 42.83853 | 13.93821 | 14626 ft | 343 kts | 338° |
| 2026-04-24 12:50 | 42.86050 | 13.92467 | 15317 ft | 349 kts | 338° |
| 2026-04-24 12:51 | 42.88276 | 13.91093 | 16019 ft | 354 kts | 338° |
| 2026-04-24 12:51 | 42.90533 | 13.89701 | 16735 ft | 359 kts | 338° |
| 2026-04-24 12:51 | 42.92826 | 13.88283 | 17403 ft | 364 kts | 338° |
| 2026-04-24 12:51 | 42.95155 | 13.86843 | 17918 ft | 370 kts | 338° |
| 2026-04-24 12:52 | 42.97508 | 13.85386 | 18408 ft | 373 kts | 337° |
| 2026-04-24 12:52 | 42.99888 | 13.83912 | 18629 ft | 378 kts | 338° |
| 2026-04-24 12:52 | 43.02274 | 13.82431 | 18865 ft | 375 kts | 338° |
| 2026-04-24 12:52 | 43.04650 | 13.80956 | 19093 ft | 375 kts | 338° |
| 2026-04-24 12:53 | 43.07049 | 13.79466 | 19108 ft | 378 kts | 338° |
| 2026-04-24 12:53 | 43.09440 | 13.77980 | 19108 ft | 376 kts | 338° |
| 2026-04-24 12:53 | 43.11843 | 13.76485 | 19274 ft | 383 kts | 338° |
| 2026-04-24 12:53 | 43.14116 | 13.74558 | 19946 ft | 388 kts | 320° |
| 2026-04-24 12:54 | 43.15819 | 13.71674 | 20724 ft | 393 kts | 302° |
| 2026-04-24 12:54 | 43.16926 | 13.68279 | 21346 ft | 398 kts | 293° |
| 2026-04-24 12:54 | 43.17897 | 13.64690 | 21888 ft | 404 kts | 292° |
| 2026-04-24 12:54 | 43.18850 | 13.61049 | 22463 ft | 408 kts | 292° |
| 2026-04-24 12:55 | 43.19811 | 13.57360 | 23047 ft | 412 kts | 292° |
| 2026-04-24 12:55 | 43.20783 | 13.53653 | 23632 ft | 415 kts | 292° |
| 2026-04-24 12:55 | 43.21769 | 13.49930 | 24245 ft | 414 kts | 292° |
| 2026-04-24 12:55 | 43.22753 | 13.46237 | 24934 ft | 410 kts | 293° |
| 2026-04-24 12:56 | 43.23403 | 13.43809 | 25375 ft | 409 kts | 293° |
| 2026-04-24 12:56 | 43.24383 | 13.40157 | 25975 ft | 408 kts | 293° |
| 2026-04-24 12:56 | 43.25367 | 13.36492 | 26536 ft | 409 kts | 293° |
| 2026-04-24 12:56 | 43.26345 | 13.32853 | 27025 ft | 409 kts | 293° |
| 2026-04-24 12:57 | 43.27327 | 13.29196 | 27458 ft | 409 kts | 293° |
| 2026-04-24 12:57 | 43.28309 | 13.25532 | 27752 ft | 408 kts | 293° |
| 2026-04-24 12:57 | 43.29285 | 13.21881 | 28073 ft | 406 kts | 293° |
| 2026-04-24 12:58 | 43.31236 | 13.14571 | 28104 ft | 406 kts | 293° |
| 2026-04-24 12:58 | 43.33174 | 13.07285 | 28102 ft | 406 kts | 293° |
| 2026-04-24 12:59 | 43.35099 | 13.00027 | 28099 ft | 407 kts | 293° |
| 2026-04-24 12:59 | 43.37034 | 12.92710 | 28103 ft | 407 kts | 293° |
| 2026-04-24 13:00 | 43.38963 | 12.85390 | 28101 ft | 407 kts | 293° |
| 2026-04-24 13:00 | 43.40873 | 12.78121 | 27726 ft | 403 kts | 293° |
| 2026-04-24 13:00 | 43.41826 | 12.74482 | 27448 ft | 403 kts | 293° |
| 2026-04-24 13:01 | 43.42775 | 12.70856 | 27189 ft | 402 kts | 293° |
| 2026-04-24 13:01 | 43.43719 | 12.67246 | 26925 ft | 400 kts | 293° |
| 2026-04-24 13:01 | 43.44659 | 12.63643 | 26577 ft | 399 kts | 293° |
| 2026-04-24 13:01 | 43.45581 | 12.60104 | 26379 ft | 392 kts | 293° |
| 2026-04-24 13:02 | 43.46493 | 12.56592 | 26347 ft | 391 kts | 293° |
| 2026-04-24 13:02 | 43.47418 | 12.53038 | 26086 ft | 397 kts | 292° |
| 2026-04-24 13:02 | 43.48348 | 12.49459 | 25851 ft | 395 kts | 292° |
| 2026-04-24 13:02 | 43.49267 | 12.45912 | 25607 ft | 392 kts | 292° |
| 2026-04-24 13:03 | 43.50177 | 12.42391 | 25356 ft | 389 kts | 292° |
| 2026-04-24 13:03 | 43.51084 | 12.38877 | 25115 ft | 390 kts | 292° |
| 2026-04-24 13:03 | 43.52019 | 12.35265 | 24911 ft | 409 kts | 292° |
| 2026-04-24 13:03 | 43.52980 | 12.31543 | 24682 ft | 415 kts | 292° |
| 2026-04-24 13:04 | 43.53942 | 12.27801 | 24440 ft | 414 kts | 292° |
| 2026-04-24 13:04 | 43.54900 | 12.24062 | 24203 ft | 414 kts | 292° |
| 2026-04-24 13:04 | 43.55878 | 12.20249 | 23998 ft | 431 kts | 292° |
| 2026-04-24 13:04 | 43.56874 | 12.16362 | 23775 ft | 437 kts | 292° |
| 2026-04-24 13:05 | 43.57879 | 12.12421 | 23514 ft | 434 kts | 291° |
| 2026-04-24 13:05 | 43.58874 | 12.08511 | 23222 ft | 431 kts | 291° |
| 2026-04-24 13:05 | 43.59864 | 12.04616 | 22948 ft | 428 kts | 291° |
| 2026-04-24 13:05 | 43.60844 | 12.00754 | 22676 ft | 426 kts | 291° |
| 2026-04-24 13:06 | 43.61822 | 11.96899 | 22411 ft | 424 kts | 291° |
| 2026-04-24 13:06 | 43.62794 | 11.93059 | 22150 ft | 423 kts | 291° |
| 2026-04-24 13:06 | 43.63764 | 11.89226 | 21881 ft | 422 kts | 291° |
| 2026-04-24 13:06 | 43.64728 | 11.85408 | 21633 ft | 421 kts | 291° |
| 2026-04-24 13:07 | 43.65691 | 11.81589 | 21369 ft | 420 kts | 291° |
| 2026-04-24 13:07 | 43.66647 | 11.77789 | 21116 ft | 420 kts | 291° |
| 2026-04-24 13:07 | 43.67605 | 11.73977 | 20869 ft | 419 kts | 291° |
| 2026-04-24 13:07 | 43.68558 | 11.70175 | 20612 ft | 418 kts | 291° |
| 2026-04-24 13:08 | 43.69506 | 11.66389 | 20370 ft | 417 kts | 291° |
| 2026-04-24 13:08 | 43.70439 | 11.62659 | 20124 ft | 415 kts | 291° |
| 2026-04-24 13:08 | 43.71379 | 11.58891 | 19885 ft | 414 kts | 291° |
| 2026-04-24 13:09 | 43.73247 | 11.51387 | 19384 ft | 411 kts | 290° |
| 2026-04-24 13:09 | 43.74174 | 11.47654 | 19098 ft | 411 kts | 291° |
| 2026-04-24 13:09 | 43.75101 | 11.43920 | 18738 ft | 410 kts | 290° |
| 2026-04-24 13:09 | 43.76022 | 11.40198 | 18384 ft | 405 kts | 290° |
| 2026-04-24 13:10 | 43.76925 | 11.36541 | 17984 ft | 399 kts | 291° |
| 2026-04-24 13:10 | 43.77821 | 11.32911 | 17588 ft | 397 kts | 290° |
| 2026-04-24 13:10 | 43.78707 | 11.29318 | 17186 ft | 394 kts | 290° |
| 2026-04-24 13:10 | 43.79588 | 11.25739 | 16804 ft | 391 kts | 290° |
| 2026-04-24 13:11 | 43.80446 | 11.22169 | 16394 ft | 390 kts | 287° |
| 2026-04-24 13:11 | 43.80736 | 11.18480 | 16023 ft | 392 kts | 266° |
| 2026-04-24 13:11 | 43.80253 | 11.14762 | 15690 ft | 392 kts | 258° |
| 2026-04-24 13:11 | 43.79631 | 11.11094 | 15324 ft | 391 kts | 258° |
| 2026-04-24 13:12 | 43.78997 | 11.07443 | 14912 ft | 390 kts | 257° |
| 2026-04-24 13:12 | 43.78374 | 11.03796 | 14482 ft | 387 kts | 258° |
| 2026-04-24 13:12 | 43.77771 | 11.00181 | 14056 ft | 386 kts | 258° |
| 2026-04-24 13:12 | 43.77174 | 10.96550 | 13603 ft | 384 kts | 258° |
| 2026-04-24 13:13 | 43.76588 | 10.92966 | 13130 ft | 379 kts | 258° |
| 2026-04-24 13:13 | 43.76010 | 10.89428 | 12662 ft | 374 kts | 259° |
| 2026-04-24 13:13 | 43.75445 | 10.85983 | 12208 ft | 370 kts | 258° |
| 2026-04-24 13:13 | 43.74469 | 10.82707 | 11725 ft | 372 kts | 235° |
| 2026-04-24 13:14 | 43.72553 | 10.80358 | 11311 ft | 370 kts | 207° |
| 2026-04-24 13:14 | 43.70099 | 10.79440 | 10889 ft | 365 kts | 179° |
| 2026-04-24 13:14 | 43.67682 | 10.80076 | 10775 ft | 344 kts | 161° |
| 2026-04-24 13:14 | 43.65384 | 10.80698 | 10638 ft | 329 kts | 176° |
| 2026-04-24 13:15 | 43.63152 | 10.80490 | 10535 ft | 315 kts | 189° |
| 2026-04-24 13:15 | 43.61051 | 10.79786 | 10231 ft | 309 kts | 196° |
| 2026-04-24 13:15 | 43.59028 | 10.78867 | 9902 ft | 309 kts | 199° |
| 2026-04-24 13:15 | 43.57019 | 10.77833 | 9589 ft | 308 kts | 201° |
| 2026-04-24 13:16 | 43.55058 | 10.76676 | 9331 ft | 305 kts | 205° |
| 2026-04-24 13:16 | 43.53173 | 10.75359 | 9032 ft | 303 kts | 209° |
| 2026-04-24 13:16 | 43.51354 | 10.73888 | 8765 ft | 301 kts | 213° |
| 2026-04-24 13:16 | 43.49629 | 10.72256 | 8441 ft | 300 kts | 218° |
| 2026-04-24 13:17 | 43.48021 | 10.70466 | 8234 ft | 295 kts | 223° |
| 2026-04-24 13:17 | 43.46545 | 10.68563 | 7989 ft | 292 kts | 226° |
| 2026-04-24 13:17 | 43.45160 | 10.66518 | 7685 ft | 291 kts | 231° |
| 2026-04-24 13:17 | 43.43884 | 10.64366 | 7439 ft | 289 kts | 235° |
| 2026-04-24 13:18 | 43.42722 | 10.62121 | 7156 ft | 287 kts | 239° |
| 2026-04-24 13:18 | 43.41678 | 10.59800 | 6955 ft | 283 kts | 242° |
| 2026-04-24 13:18 | 43.40762 | 10.57432 | 6695 ft | 279 kts | 247° |
| 2026-04-24 13:18 | 43.39968 | 10.55008 | 6483 ft | 276 kts | 249° |
| 2026-04-24 13:19 | 43.39299 | 10.52551 | 6212 ft | 274 kts | 253° |
| 2026-04-24 13:19 | 43.38751 | 10.50056 | 5951 ft | 271 kts | 258° |
| 2026-04-24 13:19 | 43.38326 | 10.47591 | 5776 ft | 266 kts | 261° |
| 2026-04-24 13:19 | 43.38008 | 10.45098 | 5478 ft | 264 kts | 264° |
| 2026-04-24 13:20 | 43.37802 | 10.42588 | 5170 ft | 264 kts | 267° |
| 2026-04-24 13:20 | 43.37706 | 10.40079 | 4877 ft | 263 kts | 269° |
| 2026-04-24 13:20 | 43.37722 | 10.37564 | 4548 ft | 262 kts | 273° |
| 2026-04-24 13:20 | 43.37847 | 10.35075 | 4288 ft | 259 kts | 276° |
| 2026-04-24 13:21 | 43.38079 | 10.32630 | 4081 ft | 259 kts | 279° |
| 2026-04-24 13:21 | 43.38410 | 10.30266 | 4004 ft | 249 kts | 282° |
| 2026-04-24 13:21 | 43.38828 | 10.28043 | 3970 ft | 233 kts | 285° |
| 2026-04-24 13:21 | 43.39297 | 10.25978 | 3988 ft | 219 kts | 288° |
| 2026-04-24 13:22 | 43.39791 | 10.24026 | 3989 ft | 212 kts | 290° |
| 2026-04-24 13:22 | 43.40338 | 10.22153 | 4001 ft | 211 kts | 293° |
| 2026-04-24 13:22 | 43.40961 | 10.20307 | 4006 ft | 214 kts | 297° |
| 2026-04-24 13:22 | 43.41841 | 10.18681 | 3997 ft | 216 kts | 316° |
| 2026-04-24 13:23 | 43.43089 | 10.17536 | 4003 ft | 218 kts | 334° |
| 2026-04-24 13:23 | 43.44556 | 10.16995 | 4001 ft | 220 kts | 353° |
| 2026-04-24 13:23 | 43.46086 | 10.17149 | 3987 ft | 221 kts | 14° |
| 2026-04-24 13:23 | 43.47461 | 10.18015 | 3832 ft | 218 kts | 33° |
| 2026-04-24 13:24 | 43.48673 | 10.19232 | 3607 ft | 212 kts | 34° |
| 2026-04-24 13:24 | 43.49852 | 10.20403 | 3367 ft | 206 kts | 34° |
| 2026-04-24 13:24 | 43.51004 | 10.21551 | 3096 ft | 202 kts | 33° |
| 2026-04-24 13:24 | 43.52147 | 10.22651 | 2842 ft | 200 kts | 32° |
| 2026-04-24 13:25 | 43.53253 | 10.23762 | 2603 ft | 198 kts | 34° |
| 2026-04-24 13:25 | 43.54359 | 10.24900 | 2550 ft | 201 kts | 33° |
| 2026-04-24 13:25 | 43.55499 | 10.26079 | 2505 ft | 204 kts | 32° |
| 2026-04-24 13:25 | 43.56625 | 10.27249 | 2489 ft | 200 kts | 35° |
| 2026-04-24 13:26 | 43.57736 | 10.28397 | 2367 ft | 200 kts | 32° |
| 2026-04-24 13:26 | 43.58859 | 10.29544 | 2153 ft | 204 kts | 34° |
| 2026-04-24 13:26 | 43.60000 | 10.30739 | 1934 ft | 206 kts | 32° |
| 2026-04-24 13:26 | 43.61143 | 10.31921 | 1652 ft | 205 kts | 34° |
| 2026-04-24 13:27 | 43.62256 | 10.33085 | 1367 ft | 193 kts | 34° |
| 2026-04-24 13:27 | 43.63303 | 10.34176 | 1051 ft | 186 kts | 32° |
| 2026-04-24 13:27 | 43.64304 | 10.35219 | 851 ft | 175 kts | 34° |
| 2026-04-24 13:27 | 43.65260 | 10.36209 | 649 ft | 169 kts | 30° |
| 2026-04-24 13:28 | 43.66189 | 10.37156 | 328 ft | 163 kts | 33° |
| 2026-04-24 13:28 | 43.67060 | 10.38070 | 145 ft | 155 kts | 34° |
| 2026-04-24 13:28 | 43.67902 | 10.38941 | 9 ft | 143 kts | 34° |
| 2026-04-24 13:28 | 43.68558 | 10.39600 | 7 ft | 87 kts | 37° |
| 2026-04-24 13:29 | 43.68947 | 10.40006 | 6 ft | 65 kts | 37° |
| 2026-04-24 13:29 | 43.69187 | 10.40254 | 7 ft | 20 kts | 37° |
| 2026-04-24 13:29 | 43.69220 | 10.40289 | 8 ft | 0 kts | 37° |
| 2026-04-24 13:29 | 43.69222 | 10.40291 | 8 ft | 1 kts | 37° |
| 2026-04-24 13:30 | 43.69247 | 10.40306 | 8 ft | 7 kts | 8° |
| 2026-04-24 13:30 | 43.69300 | 10.40260 | 9 ft | 10 kts | 306° |
| 2026-04-24 13:30 | 43.69339 | 10.40184 | 10 ft | 10 kts | 305° |
| 2026-04-24 13:30 | 43.69382 | 10.40114 | 11 ft | 9 kts | 326° |
| 2026-04-24 13:31 | 43.69444 | 10.40093 | 10 ft | 9 kts | 352° |
| 2026-04-24 13:31 | 43.69515 | 10.40079 | 10 ft | 12 kts | 352° |
| 2026-04-24 13:31 | 43.69605 | 10.40062 | 10 ft | 13 kts | 352° |
| 2026-04-24 13:31 | 43.69668 | 10.40045 | 11 ft | 7 kts | 328° |
| 2026-04-24 13:32 | 43.69687 | 10.39981 | 12 ft | 7 kts | 278° |
| 2026-04-24 13:32 | 43.69695 | 10.39914 | 10 ft | 7 kts | 279° |
| 2026-04-24 13:32 | 43.69700 | 10.39848 | 10 ft | 7 kts | 265° |
| 2026-04-24 13:32 | 43.69669 | 10.39805 | 10 ft | 7 kts | 198° |
| 2026-04-24 13:33 | 43.69623 | 10.39794 | 10 ft | 6 kts | 189° |
| 2026-04-24 13:33 | 43.69606 | 10.39746 | 10 ft | 6 kts | 271° |
| 2026-04-24 13:33 | 43.69615 | 10.39699 | 13 ft | 4 kts | 305° |
| 2026-04-24 13:33 | 43.69619 | 10.39695 | 12 ft | 0 kts | 326° |